WTB9CK MYNN-MTPP
Flight info
| Callsign | WTB9CK |
|---|---|
| Flight time | 1h 19m |
| Altitude | 33000 |
| Route | BOSAR DCT KNSLY DCT JOSES/N0344F230 A315 SAVAR SAVAR1C |
| Aircraft | E45X/M-SDFGIRW/S |
Departure
| Time | 2026-04-20 18:29 |
|---|---|
| Airport | Lynden Pindling International Airport (MYNN) |
Arrival
| Time | 2026-04-20 19:49 |
|---|---|
| Airport | Toussaint Louverture International Airport (MTPP) |
| Time | Latitude | Longitude | Altitude | Speed | Heading |
|---|---|---|---|---|---|
| 2026-04-20 17:39 | 25.04776 | -77.46566 | 22 ft | 0 kts | 182° |
| 2026-04-20 18:23 | 25.04774 | -77.46568 | 22 ft | 0 kts | 207° |
| 2026-04-20 18:23 | 25.04773 | -77.46581 | 22 ft | 4 kts | 273° |
| 2026-04-20 18:24 | 25.04785 | -77.46628 | 21 ft | 7 kts | 290° |
| 2026-04-20 18:24 | 25.04766 | -77.46683 | 22 ft | 9 kts | 224° |
| 2026-04-20 18:24 | 25.04714 | -77.46739 | 21 ft | 9 kts | 236° |
| 2026-04-20 18:24 | 25.04736 | -77.46810 | 22 ft | 12 kts | 316° |
| 2026-04-20 18:25 | 25.04782 | -77.46860 | 21 ft | 7 kts | 315° |
| 2026-04-20 18:25 | 25.04824 | -77.46906 | 21 ft | 9 kts | 315° |
| 2026-04-20 18:25 | 25.04877 | -77.46967 | 21 ft | 12 kts | 315° |
| 2026-04-20 18:25 | 25.04945 | -77.47041 | 21 ft | 14 kts | 315° |
| 2026-04-20 18:26 | 25.05021 | -77.47127 | 21 ft | 17 kts | 315° |
| 2026-04-20 18:26 | 25.05110 | -77.47225 | 22 ft | 19 kts | 314° |
| 2026-04-20 18:26 | 25.05207 | -77.47335 | 22 ft | 16 kts | 307° |
| 2026-04-20 18:26 | 25.05220 | -77.47439 | 21 ft | 15 kts | 252° |
| 2026-04-20 18:27 | 25.05177 | -77.47517 | 21 ft | 10 kts | 201° |
| 2026-04-20 18:27 | 25.05131 | -77.47507 | 21 ft | 0 kts | 137° |
| 2026-04-20 18:28 | 25.05127 | -77.47502 | 21 ft | 3 kts | 137° |
| 2026-04-20 18:28 | 25.04999 | -77.47360 | 22 ft | 60 kts | 134° |
| 2026-04-20 18:28 | 25.04550 | -77.46862 | 22 ft | 119 kts | 134° |
| 2026-04-20 18:28 | 25.03840 | -77.46070 | 60 ft | 167 kts | 133° |
| 2026-04-20 18:29 | 25.02985 | -77.45130 | 596 ft | 184 kts | 133° |
| 2026-04-20 18:29 | 25.02056 | -77.44093 | 1310 ft | 196 kts | 133° |
| 2026-04-20 18:29 | 25.01089 | -77.43021 | 2114 ft | 204 kts | 133° |
| 2026-04-20 18:29 | 25.00086 | -77.41908 | 2974 ft | 211 kts | 134° |
| 2026-04-20 18:30 | 24.99047 | -77.40702 | 3723 ft | 223 kts | 125° |
| 2026-04-20 18:30 | 24.98182 | -77.39272 | 4490 ft | 232 kts | 123° |
| 2026-04-20 18:30 | 24.97242 | -77.37768 | 5108 ft | 248 kts | 124° |
| 2026-04-20 18:30 | 24.96227 | -77.36158 | 5711 ft | 265 kts | 124° |
| 2026-04-20 18:31 | 24.95158 | -77.34467 | 6438 ft | 275 kts | 124° |
| 2026-04-20 18:31 | 24.94070 | -77.32746 | 7373 ft | 275 kts | 124° |
| 2026-04-20 18:31 | 24.92975 | -77.31017 | 8209 ft | 279 kts | 125° |
| 2026-04-20 18:31 | 24.91867 | -77.29267 | 9019 ft | 283 kts | 125° |
| 2026-04-20 18:32 | 24.90736 | -77.27483 | 9870 ft | 285 kts | 125° |
| 2026-04-20 18:32 | 24.89594 | -77.25680 | 10545 ft | 294 kts | 125° |
| 2026-04-20 18:32 | 24.88407 | -77.23809 | 11117 ft | 305 kts | 124° |
| 2026-04-20 18:32 | 24.87174 | -77.21863 | 11659 ft | 317 kts | 124° |
| 2026-04-20 18:33 | 24.85890 | -77.19840 | 12165 ft | 330 kts | 124° |
| 2026-04-20 18:33 | 24.84551 | -77.17731 | 12702 ft | 341 kts | 124° |
| 2026-04-20 18:33 | 24.83176 | -77.15565 | 13214 ft | 352 kts | 124° |
| 2026-04-20 18:33 | 24.81735 | -77.13297 | 13672 ft | 364 kts | 124° |
| 2026-04-20 18:34 | 24.80277 | -77.11002 | 14157 ft | 374 kts | 124° |
| 2026-04-20 18:34 | 24.78768 | -77.08630 | 14730 ft | 380 kts | 124° |
| 2026-04-20 18:34 | 24.77257 | -77.06255 | 15403 ft | 382 kts | 125° |
| 2026-04-20 18:34 | 24.75732 | -77.03859 | 16025 ft | 386 kts | 125° |
| 2026-04-20 18:35 | 24.74175 | -77.01417 | 16611 ft | 390 kts | 125° |
| 2026-04-20 18:35 | 24.72625 | -76.98988 | 17212 ft | 393 kts | 125° |
| 2026-04-20 18:35 | 24.71055 | -76.96525 | 17808 ft | 396 kts | 125° |
| 2026-04-20 18:35 | 24.69480 | -76.94055 | 18457 ft | 397 kts | 125° |
| 2026-04-20 18:36 | 24.67884 | -76.91555 | 19142 ft | 396 kts | 125° |
| 2026-04-20 18:36 | 24.66314 | -76.89095 | 19847 ft | 395 kts | 125° |
| 2026-04-20 18:36 | 24.64738 | -76.86628 | 20475 ft | 395 kts | 125° |
| 2026-04-20 18:36 | 24.62959 | -76.84349 | 21055 ft | 395 kts | 140° |
| 2026-04-20 18:37 | 24.60837 | -76.82444 | 21676 ft | 395 kts | 142° |
| 2026-04-20 18:37 | 24.58704 | -76.80532 | 22295 ft | 395 kts | 142° |
| 2026-04-20 18:37 | 24.56576 | -76.78630 | 22878 ft | 396 kts | 142° |
| 2026-04-20 18:37 | 24.54456 | -76.76735 | 23504 ft | 395 kts | 142° |
| 2026-04-20 18:38 | 24.52331 | -76.74837 | 24078 ft | 396 kts | 142° |
| 2026-04-20 18:38 | 24.50200 | -76.72935 | 24665 ft | 396 kts | 142° |
| 2026-04-20 18:38 | 24.48058 | -76.71022 | 25277 ft | 395 kts | 142° |
| 2026-04-20 18:38 | 24.45938 | -76.69132 | 25831 ft | 395 kts | 142° |
| 2026-04-20 18:39 | 24.43789 | -76.67216 | 26329 ft | 397 kts | 142° |
| 2026-04-20 18:39 | 24.41659 | -76.65318 | 26939 ft | 395 kts | 142° |
| 2026-04-20 18:39 | 24.39533 | -76.63424 | 27458 ft | 396 kts | 142° |
| 2026-04-20 18:39 | 24.37385 | -76.61510 | 27978 ft | 397 kts | 142° |
| 2026-04-20 18:40 | 24.35236 | -76.59598 | 28542 ft | 396 kts | 142° |
| 2026-04-20 18:40 | 24.33122 | -76.57718 | 29091 ft | 395 kts | 142° |
| 2026-04-20 18:40 | 24.30969 | -76.55804 | 29581 ft | 396 kts | 142° |
| 2026-04-20 18:40 | 24.28831 | -76.53903 | 30089 ft | 397 kts | 142° |
| 2026-04-20 18:41 | 24.26684 | -76.51995 | 30578 ft | 398 kts | 142° |
| 2026-04-20 18:41 | 24.24537 | -76.50090 | 31100 ft | 398 kts | 142° |
| 2026-04-20 18:41 | 24.22402 | -76.48194 | 31549 ft | 399 kts | 142° |
| 2026-04-20 18:41 | 24.20219 | -76.46257 | 32056 ft | 399 kts | 142° |
| 2026-04-20 18:42 | 24.18051 | -76.44334 | 32542 ft | 399 kts | 142° |
| 2026-04-20 18:42 | 24.15847 | -76.42381 | 32971 ft | 402 kts | 141° |
| 2026-04-20 18:42 | 24.13617 | -76.40404 | 33016 ft | 414 kts | 142° |
| 2026-04-20 18:42 | 24.11296 | -76.38350 | 33023 ft | 423 kts | 141° |
| 2026-04-20 18:43 | 24.06564 | -76.34162 | 33020 ft | 441 kts | 142° |
| 2026-04-20 18:43 | 24.01666 | -76.29832 | 33018 ft | 457 kts | 142° |
| 2026-04-20 18:44 | 23.96617 | -76.25373 | 33012 ft | 472 kts | 142° |
| 2026-04-20 18:44 | 23.91421 | -76.20789 | 33004 ft | 484 kts | 141° |
| 2026-04-20 18:45 | 23.86091 | -76.16092 | 32995 ft | 495 kts | 141° |
| 2026-04-20 18:45 | 23.80652 | -76.11304 | 33002 ft | 504 kts | 141° |
| 2026-04-20 18:46 | 23.75173 | -76.06486 | 32996 ft | 502 kts | 141° |
| 2026-04-20 18:46 | 23.69744 | -76.01717 | 32999 ft | 496 kts | 141° |
| 2026-04-20 18:47 | 23.64370 | -75.97002 | 32995 ft | 491 kts | 141° |
| 2026-04-20 18:47 | 23.59070 | -75.92357 | 32999 ft | 487 kts | 141° |
| 2026-04-20 18:48 | 23.53778 | -75.87723 | 33004 ft | 484 kts | 141° |
| 2026-04-20 18:48 | 23.48544 | -75.83147 | 33003 ft | 482 kts | 141° |
| 2026-04-20 18:49 | 23.43286 | -75.78552 | 33005 ft | 481 kts | 141° |
| 2026-04-20 18:49 | 23.38044 | -75.73977 | 33008 ft | 481 kts | 141° |
| 2026-04-20 18:50 | 23.32841 | -75.69441 | 33005 ft | 478 kts | 141° |
| 2026-04-20 18:50 | 23.27612 | -75.64887 | 33003 ft | 477 kts | 141° |
| 2026-04-20 18:51 | 23.22445 | -75.60391 | 33001 ft | 475 kts | 141° |
| 2026-04-20 18:51 | 23.17308 | -75.55926 | 33000 ft | 473 kts | 141° |
| 2026-04-20 18:52 | 23.12111 | -75.51414 | 32996 ft | 472 kts | 141° |
| 2026-04-20 18:52 | 23.06981 | -75.46964 | 32996 ft | 471 kts | 140° |
| 2026-04-20 18:53 | 23.01840 | -75.42509 | 32997 ft | 471 kts | 140° |
| 2026-04-20 18:53 | 22.96720 | -75.38077 | 32997 ft | 470 kts | 141° |
| 2026-04-20 18:54 | 22.91602 | -75.33652 | 32996 ft | 469 kts | 141° |
| 2026-04-20 18:54 | 22.86448 | -75.29198 | 32984 ft | 468 kts | 141° |
| 2026-04-20 18:55 | 22.81364 | -75.24810 | 32992 ft | 467 kts | 141° |
| 2026-04-20 18:55 | 22.76287 | -75.20434 | 32997 ft | 465 kts | 141° |
| 2026-04-20 18:56 | 22.71196 | -75.16048 | 32998 ft | 464 kts | 141° |
| 2026-04-20 18:56 | 22.66102 | -75.11665 | 32993 ft | 464 kts | 141° |
| 2026-04-20 18:57 | 22.61064 | -75.07334 | 32996 ft | 463 kts | 140° |
| 2026-04-20 18:57 | 22.56017 | -75.02998 | 32991 ft | 463 kts | 140° |
| 2026-04-20 18:58 | 22.50957 | -74.98657 | 32989 ft | 462 kts | 140° |
| 2026-04-20 18:58 | 22.45897 | -74.94319 | 32991 ft | 462 kts | 140° |
| 2026-04-20 18:59 | 22.40854 | -74.90000 | 32995 ft | 461 kts | 141° |
| 2026-04-20 18:59 | 22.35802 | -74.85678 | 32998 ft | 461 kts | 140° |
| 2026-04-20 19:00 | 22.30766 | -74.81374 | 32999 ft | 461 kts | 140° |
| 2026-04-20 19:00 | 22.25733 | -74.77075 | 32999 ft | 461 kts | 140° |
| 2026-04-20 19:01 | 22.20690 | -74.72773 | 32999 ft | 461 kts | 140° |
| 2026-04-20 19:01 | 22.15652 | -74.68479 | 32998 ft | 462 kts | 140° |
| 2026-04-20 19:02 | 22.10609 | -74.64185 | 33000 ft | 462 kts | 140° |
| 2026-04-20 19:02 | 22.05535 | -74.59868 | 33000 ft | 462 kts | 140° |
| 2026-04-20 19:03 | 22.00476 | -74.55568 | 32998 ft | 463 kts | 140° |
| 2026-04-20 19:03 | 21.95406 | -74.51262 | 32993 ft | 463 kts | 140° |
| 2026-04-20 19:04 | 21.90295 | -74.46927 | 32994 ft | 463 kts | 140° |
| 2026-04-20 19:04 | 21.85203 | -74.42610 | 32982 ft | 463 kts | 140° |
| 2026-04-20 19:05 | 21.80157 | -74.38338 | 32980 ft | 463 kts | 140° |
| 2026-04-20 19:05 | 21.75025 | -74.33996 | 32982 ft | 472 kts | 140° |
| 2026-04-20 19:06 | 21.69798 | -74.29578 | 32979 ft | 484 kts | 140° |
| 2026-04-20 19:06 | 21.64450 | -74.25063 | 32979 ft | 494 kts | 140° |
| 2026-04-20 19:07 | 21.58985 | -74.20453 | 32977 ft | 499 kts | 140° |
| 2026-04-20 19:07 | 21.53504 | -74.15833 | 32977 ft | 500 kts | 140° |
| 2026-04-20 19:08 | 21.45280 | -74.08911 | 32976 ft | 502 kts | 140° |
| 2026-04-20 19:09 | 21.39783 | -74.04290 | 32976 ft | 503 kts | 140° |
| 2026-04-20 19:09 | 21.34278 | -73.99667 | 32977 ft | 503 kts | 140° |
| 2026-04-20 19:10 | 21.28732 | -73.95014 | 32976 ft | 504 kts | 140° |
| 2026-04-20 19:10 | 21.23188 | -73.90368 | 32974 ft | 505 kts | 140° |
| 2026-04-20 19:11 | 21.17636 | -73.85718 | 32975 ft | 504 kts | 140° |
| 2026-04-20 19:11 | 21.12128 | -73.81111 | 32966 ft | 496 kts | 140° |
| 2026-04-20 19:12 | 21.06708 | -73.76581 | 32961 ft | 490 kts | 140° |
| 2026-04-20 19:12 | 21.01386 | -73.72137 | 32970 ft | 486 kts | 140° |
| 2026-04-20 19:13 | 20.95966 | -73.67764 | 32969 ft | 485 kts | 146° |
| 2026-04-20 19:13 | 20.90061 | -73.64323 | 32971 ft | 484 kts | 151° |
| 2026-04-20 19:14 | 20.84111 | -73.60962 | 32962 ft | 481 kts | 150° |
| 2026-04-20 19:14 | 20.78193 | -73.57622 | 32962 ft | 479 kts | 150° |
| 2026-04-20 19:15 | 20.72326 | -73.54315 | 32963 ft | 477 kts | 150° |
| 2026-04-20 19:15 | 20.66435 | -73.50996 | 32965 ft | 475 kts | 150° |
| 2026-04-20 19:16 | 20.60563 | -73.47692 | 32960 ft | 473 kts | 150° |
| 2026-04-20 19:16 | 20.54713 | -73.44402 | 32958 ft | 472 kts | 151° |
| 2026-04-20 19:17 | 20.48901 | -73.41138 | 32966 ft | 471 kts | 150° |
| 2026-04-20 19:17 | 20.43119 | -73.37893 | 32975 ft | 470 kts | 150° |
| 2026-04-20 19:18 | 20.37306 | -73.34632 | 32974 ft | 470 kts | 151° |
| 2026-04-20 19:18 | 20.31493 | -73.31375 | 32968 ft | 469 kts | 151° |
| 2026-04-20 19:19 | 20.25734 | -73.28151 | 32970 ft | 469 kts | 151° |
| 2026-04-20 19:19 | 20.19923 | -73.24900 | 32972 ft | 468 kts | 151° |
| 2026-04-20 19:20 | 20.14164 | -73.21679 | 32970 ft | 468 kts | 150° |
| 2026-04-20 19:20 | 20.08374 | -73.18450 | 32971 ft | 467 kts | 150° |
| 2026-04-20 19:21 | 20.02600 | -73.15235 | 32961 ft | 468 kts | 150° |
| 2026-04-20 19:21 | 19.96781 | -73.11996 | 32952 ft | 468 kts | 150° |
| 2026-04-20 19:22 | 19.90981 | -73.08768 | 32964 ft | 467 kts | 150° |
| 2026-04-20 19:22 | 19.88082 | -73.07178 | 32798 ft | 471 kts | 150° |
| 2026-04-20 19:22 | 19.85122 | -73.05486 | 32331 ft | 482 kts | 150° |
| 2026-04-20 19:22 | 19.82150 | -73.03810 | 31888 ft | 488 kts | 150° |
| 2026-04-20 19:23 | 19.79099 | -73.02094 | 31443 ft | 493 kts | 150° |
| 2026-04-20 19:23 | 19.76044 | -73.00398 | 31176 ft | 494 kts | 151° |
| 2026-04-20 19:23 | 19.73016 | -72.98559 | 30901 ft | 494 kts | 147° |
| 2026-04-20 19:23 | 19.70051 | -72.96739 | 30443 ft | 497 kts | 148° |
| 2026-04-20 19:24 | 19.67035 | -72.94917 | 29904 ft | 496 kts | 148° |
| 2026-04-20 19:24 | 19.63994 | -72.93088 | 29347 ft | 492 kts | 148° |
| 2026-04-20 19:24 | 19.61048 | -72.91317 | 28808 ft | 489 kts | 148° |
| 2026-04-20 19:24 | 19.58049 | -72.89516 | 28274 ft | 485 kts | 148° |
| 2026-04-20 19:25 | 19.55140 | -72.87771 | 27749 ft | 482 kts | 148° |
| 2026-04-20 19:25 | 19.52234 | -72.86027 | 27196 ft | 475 kts | 148° |
| 2026-04-20 19:25 | 19.49379 | -72.84315 | 26645 ft | 466 kts | 148° |
| 2026-04-20 19:25 | 19.46578 | -72.82637 | 26066 ft | 457 kts | 148° |
| 2026-04-20 19:26 | 19.43834 | -72.80992 | 25491 ft | 448 kts | 148° |
| 2026-04-20 19:26 | 19.41110 | -72.79361 | 24913 ft | 440 kts | 148° |
| 2026-04-20 19:26 | 19.38459 | -72.77774 | 24340 ft | 433 kts | 148° |
| 2026-04-20 19:26 | 19.35837 | -72.76205 | 23767 ft | 426 kts | 148° |
| 2026-04-20 19:27 | 19.33295 | -72.74683 | 23203 ft | 420 kts | 148° |
| 2026-04-20 19:27 | 19.30768 | -72.73172 | 22637 ft | 414 kts | 148° |
| 2026-04-20 19:27 | 19.28269 | -72.71678 | 22077 ft | 408 kts | 148° |
| 2026-04-20 19:27 | 19.25788 | -72.70195 | 21515 ft | 403 kts | 148° |
| 2026-04-20 19:28 | 19.23357 | -72.68743 | 20959 ft | 398 kts | 148° |
| 2026-04-20 19:28 | 19.20968 | -72.67316 | 20402 ft | 394 kts | 148° |
| 2026-04-20 19:28 | 19.18609 | -72.65907 | 19854 ft | 389 kts | 149° |
| 2026-04-20 19:28 | 19.16258 | -72.64504 | 19309 ft | 385 kts | 149° |
| 2026-04-20 19:29 | 19.13939 | -72.63122 | 18760 ft | 380 kts | 149° |
| 2026-04-20 19:29 | 19.11644 | -72.61747 | 18203 ft | 374 kts | 149° |
| 2026-04-20 19:29 | 19.09401 | -72.60399 | 17664 ft | 367 kts | 149° |
| 2026-04-20 19:29 | 19.07194 | -72.59073 | 17136 ft | 362 kts | 149° |
| 2026-04-20 19:30 | 19.05021 | -72.57764 | 16612 ft | 356 kts | 149° |
| 2026-04-20 19:30 | 19.02863 | -72.56457 | 16080 ft | 352 kts | 149° |
| 2026-04-20 19:30 | 19.00766 | -72.55186 | 15556 ft | 348 kts | 149° |
| 2026-04-20 19:30 | 18.98681 | -72.53921 | 15014 ft | 342 kts | 148° |
| 2026-04-20 19:31 | 18.96652 | -72.52687 | 14432 ft | 332 kts | 149° |
| 2026-04-20 19:31 | 18.94696 | -72.51492 | 13857 ft | 315 kts | 148° |
| 2026-04-20 19:31 | 18.92852 | -72.50367 | 13292 ft | 301 kts | 149° |
| 2026-04-20 19:31 | 18.91071 | -72.49275 | 12737 ft | 289 kts | 149° |
| 2026-04-20 19:32 | 18.89343 | -72.48216 | 12180 ft | 281 kts | 148° |
| 2026-04-20 19:32 | 18.87680 | -72.47200 | 11630 ft | 274 kts | 148° |
| 2026-04-20 19:32 | 18.86263 | -72.45945 | 11130 ft | 260 kts | 120° |
| 2026-04-20 19:32 | 18.85751 | -72.44208 | 11080 ft | 246 kts | 88° |
| 2026-04-20 19:33 | 18.85863 | -72.42409 | 11048 ft | 244 kts | 84° |
| 2026-04-20 19:33 | 18.86012 | -72.40603 | 10721 ft | 252 kts | 83° |
| 2026-04-20 19:33 | 18.86170 | -72.38760 | 10379 ft | 253 kts | 84° |
| 2026-04-20 19:33 | 18.86337 | -72.36911 | 10027 ft | 253 kts | 83° |
| 2026-04-20 19:34 | 18.86513 | -72.35058 | 9670 ft | 254 kts | 83° |
| 2026-04-20 19:34 | 18.86696 | -72.33212 | 9318 ft | 254 kts | 84° |
| 2026-04-20 19:34 | 18.86879 | -72.31358 | 8954 ft | 254 kts | 86° |
| 2026-04-20 19:34 | 18.86562 | -72.29555 | 8608 ft | 253 kts | 117° |
| 2026-04-20 19:35 | 18.85444 | -72.28100 | 8298 ft | 253 kts | 130° |
| 2026-04-20 19:35 | 18.84287 | -72.26722 | 8100 ft | 246 kts | 131° |
| 2026-04-20 19:35 | 18.83173 | -72.25407 | 8078 ft | 233 kts | 131° |
| 2026-04-20 19:35 | 18.82109 | -72.24152 | 7934 ft | 228 kts | 130° |
| 2026-04-20 19:36 | 18.81024 | -72.22877 | 7689 ft | 238 kts | 129° |
| 2026-04-20 19:36 | 18.79970 | -72.21510 | 7455 ft | 243 kts | 127° |
| 2026-04-20 19:36 | 18.78925 | -72.20113 | 7212 ft | 240 kts | 127° |
| 2026-04-20 19:36 | 18.77893 | -72.18720 | 6967 ft | 238 kts | 127° |
| 2026-04-20 19:37 | 18.76879 | -72.17351 | 6720 ft | 236 kts | 126° |
| 2026-04-20 19:37 | 18.75872 | -72.15990 | 6467 ft | 234 kts | 127° |
| 2026-04-20 19:37 | 18.74884 | -72.14655 | 6361 ft | 225 kts | 127° |
| 2026-04-20 19:37 | 18.73927 | -72.13393 | 6351 ft | 221 kts | 134° |
| 2026-04-20 19:38 | 18.72584 | -72.12616 | 6239 ft | 225 kts | 169° |
| 2026-04-20 19:38 | 18.71026 | -72.12408 | 6115 ft | 227 kts | 171° |
| 2026-04-20 19:38 | 18.69440 | -72.12180 | 5998 ft | 233 kts | 171° |
| 2026-04-20 19:38 | 18.67805 | -72.11941 | 5873 ft | 239 kts | 172° |
| 2026-04-20 19:39 | 18.66125 | -72.11695 | 5752 ft | 237 kts | 171° |
| 2026-04-20 19:39 | 18.64644 | -72.11137 | 5668 ft | 223 kts | 139° |
| 2026-04-20 19:39 | 18.63769 | -72.09874 | 5623 ft | 207 kts | 109° |
| 2026-04-20 19:39 | 18.63282 | -72.08442 | 5566 ft | 207 kts | 106° |
| 2026-04-20 19:40 | 18.62845 | -72.07017 | 5501 ft | 201 kts | 105° |
| 2026-04-20 19:40 | 18.62432 | -72.05617 | 5431 ft | 194 kts | 105° |
| 2026-04-20 19:40 | 18.62040 | -72.04261 | 5368 ft | 197 kts | 104° |
| 2026-04-20 19:40 | 18.61636 | -72.02865 | 5322 ft | 199 kts | 105° |
| 2026-04-20 19:41 | 18.61233 | -72.01468 | 5269 ft | 198 kts | 105° |
| 2026-04-20 19:41 | 18.60775 | -72.00098 | 5209 ft | 199 kts | 120° |
| 2026-04-20 19:41 | 18.59717 | -71.99206 | 5195 ft | 197 kts | 163° |
| 2026-04-20 19:41 | 18.58358 | -71.99249 | 5096 ft | 199 kts | 197° |
| 2026-04-20 19:42 | 18.57018 | -71.99691 | 4844 ft | 204 kts | 200° |
| 2026-04-20 19:42 | 18.55906 | -72.00565 | 4575 ft | 198 kts | 242° |
| 2026-04-20 19:42 | 18.55639 | -72.01914 | 4364 ft | 185 kts | 285° |
| 2026-04-20 19:42 | 18.55980 | -72.03181 | 4173 ft | 176 kts | 288° |
| 2026-04-20 19:43 | 18.56323 | -72.04408 | 3900 ft | 172 kts | 289° |
| 2026-04-20 19:43 | 18.56664 | -72.05604 | 3631 ft | 169 kts | 288° |
| 2026-04-20 19:43 | 18.56995 | -72.06758 | 3448 ft | 161 kts | 289° |
| 2026-04-20 19:43 | 18.57319 | -72.07884 | 3172 ft | 160 kts | 289° |
| 2026-04-20 19:44 | 18.57642 | -72.09005 | 2911 ft | 159 kts | 289° |
| 2026-04-20 19:44 | 18.57956 | -72.10098 | 2759 ft | 152 kts | 290° |
| 2026-04-20 19:44 | 18.58261 | -72.11156 | 2634 ft | 150 kts | 290° |
| 2026-04-20 19:44 | 18.58563 | -72.12202 | 2501 ft | 148 kts | 289° |
| 2026-04-20 19:45 | 18.58793 | -72.13257 | 2376 ft | 150 kts | 272° |
| 2026-04-20 19:45 | 18.58743 | -72.14361 | 2268 ft | 151 kts | 269° |
| 2026-04-20 19:45 | 18.58691 | -72.15478 | 2152 ft | 152 kts | 269° |
| 2026-04-20 19:45 | 18.58636 | -72.16600 | 2048 ft | 152 kts | 269° |
| 2026-04-20 19:46 | 18.58582 | -72.17690 | 2026 ft | 144 kts | 269° |
| 2026-04-20 19:46 | 18.58526 | -72.18737 | 1907 ft | 150 kts | 268° |
| 2026-04-20 19:46 | 18.58436 | -72.19853 | 1737 ft | 153 kts | 268° |
| 2026-04-20 19:46 | 18.58331 | -72.20986 | 1569 ft | 154 kts | 267° |
| 2026-04-20 19:47 | 18.58265 | -72.22101 | 1338 ft | 155 kts | 270° |
| 2026-04-20 19:47 | 18.58261 | -72.23229 | 1123 ft | 153 kts | 273° |
| 2026-04-20 19:47 | 18.58243 | -72.24333 | 891 ft | 147 kts | 270° |
| 2026-04-20 19:47 | 18.58185 | -72.25400 | 704 ft | 144 kts | 268° |
| 2026-04-20 19:48 | 18.58141 | -72.26444 | 520 ft | 141 kts | 270° |
| 2026-04-20 19:48 | 18.58094 | -72.27478 | 313 ft | 139 kts | 268° |
| 2026-04-20 19:48 | 18.58043 | -72.28452 | 189 ft | 125 kts | 268° |
| 2026-04-20 19:48 | 18.58008 | -72.29234 | 173 ft | 75 kts | 268° |
| 2026-04-20 19:49 | 18.57984 | -72.29446 | 170 ft | 13 kts | 232° |
| 2026-04-20 19:49 | 18.57886 | -72.29467 | 171 ft | 16 kts | 178° |
| 2026-04-20 19:49 | 18.57766 | -72.29461 | 172 ft | 18 kts | 177° |
| 2026-04-20 19:49 | 18.57685 | -72.29490 | 172 ft | 10 kts | 247° |
| 2026-04-20 19:50 | 18.57678 | -72.29558 | 171 ft | 0 kts | 267° |
| 2026-04-20 19:50 | 18.57678 | -72.29561 | 171 ft | 2 kts | 267° |
| 2026-04-20 19:50 | 18.57676 | -72.29605 | 172 ft | 8 kts | 268° |
| 2026-04-20 19:50 | 18.57669 | -72.29665 | 173 ft | 4 kts | 241° |
| 2026-04-20 19:51 | 18.57632 | -72.29677 | 174 ft | 7 kts | 177° |
| 2026-04-20 19:51 | 18.57611 | -72.29676 | 176 ft | 0 kts | 178° |